createdAt,value
2016-10-10T00:00:22.629Z,0
2016-10-10T00:01:22.330Z,0
2016-10-10T00:02:22.347Z,0
2016-10-10T00:03:22.379Z,0
2016-10-10T00:04:22.690Z,0
2016-10-10T00:05:22.399Z,0
2016-10-10T00:06:22.110Z,0
2016-10-10T00:07:22.444Z,0
2016-10-10T00:08:22.478Z,0
2016-10-10T00:09:22.469Z,0
2016-10-10T00:10:22.799Z,0
2016-10-10T00:11:22.187Z,0
2016-10-10T00:12:22.837Z,0
2016-10-10T00:13:22.863Z,0
2016-10-10T00:14:22.563Z,0
2016-10-10T00:15:22.886Z,0
2016-10-10T00:17:22.920Z,0
2016-10-10T00:18:22.937Z,0
2016-10-10T00:19:22.964Z,0
2016-10-10T00:20:22.662Z,0
2016-10-10T00:21:22.682Z,0
2016-10-10T00:22:23.020Z,0
2016-10-10T00:23:23.365Z,0
2016-10-10T00:24:22.731Z,0
2016-10-10T00:25:22.429Z,0
2016-10-10T00:26:23.078Z,0
2016-10-10T00:27:22.790Z,0
2016-10-10T00:28:22.809Z,0
2016-10-10T00:29:22.829Z,0
2016-10-10T00:30:22.838Z,0
2016-10-10T00:31:23.193Z,0
2016-10-10T00:32:23.184Z,0
2016-10-10T00:33:23.204Z,0
2016-10-10T00:34:22.898Z,0
2016-10-10T00:35:23.248Z,0
2016-10-10T00:36:22.954Z,0
2016-10-10T00:37:22.956Z,0
2016-10-10T00:38:22.991Z,0
2016-10-10T00:39:23.296Z,0
2016-10-10T00:40:23.012Z,0
2016-10-10T00:41:23.654Z,0
2016-10-10T00:42:23.353Z,0
2016-10-10T00:43:23.055Z,0
2016-10-10T00:44:23.390Z,0
2016-10-10T00:45:22.778Z,0
2016-10-10T00:46:23.103Z,0
2016-10-10T00:47:22.808Z,0
2016-10-10T00:48:23.461Z,0
2016-10-10T00:49:23.154Z,0
2016-10-10T00:50:22.855Z,0
2016-10-10T00:51:23.075Z,0
2016-10-10T00:52:23.527Z,0
2016-10-10T00:53:23.221Z,0
2016-10-10T00:54:23.567Z,0
2016-10-10T00:55:23.886Z,0
2016-10-10T00:56:23.274Z,0
2016-10-10T00:57:23.290Z,0
2016-10-10T00:58:23.010Z,0
2016-10-10T00:59:23.643Z,0
2016-10-10T01:00:23.349Z,0
2016-10-10T01:01:23.047Z,0
2016-10-10T01:02:23.697Z,0
2016-10-10T01:03:23.392Z,0
2016-10-10T01:04:23.409Z,0
2016-10-10T01:05:24.064Z,0
2016-10-10T01:06:24.075Z,0
2016-10-10T01:07:23.461Z,0
2016-10-10T01:08:23.818Z,0
2016-10-10T01:09:23.817Z,0
2016-10-10T01:10:23.196Z,0
2016-10-10T01:11:23.847Z,0
2016-10-10T01:12:23.230Z,0
2016-10-10T01:13:23.886Z,0
2016-10-10T01:14:23.265Z,0
2016-10-10T01:15:23.932Z,0
2016-10-10T01:16:23.323Z,0
2016-10-10T01:17:23.633Z,0
2016-10-10T01:18:23.649Z,0
2016-10-10T01:19:23.351Z,0
2016-10-10T01:20:23.715Z,0
2016-10-10T01:21:23.705Z,0
2016-10-10T01:22:23.413Z,0
2016-10-10T01:23:23.737Z,0
2016-10-10T01:24:23.469Z,0
2016-10-10T01:25:23.500Z,0
2016-10-10T01:26:23.795Z,0
2016-10-10T01:27:23.840Z,0
2016-10-10T01:28:23.504Z,0
2016-10-10T01:29:24.151Z,0
2016-10-10T01:30:24.296Z,0
2016-10-10T01:31:24.184Z,0
2016-10-10T01:32:23.596Z,0
2016-10-10T01:33:24.531Z,0
2016-10-10T01:34:24.243Z,0
2016-10-10T01:35:24.565Z,0
2016-10-10T01:36:23.647Z,0
2016-10-10T01:37:24.285Z,0
2016-10-10T01:38:24.007Z,0
2016-10-10T01:39:23.689Z,0
2016-10-10T01:40:24.024Z,0
2016-10-10T01:41:24.037Z,0
2016-10-10T01:42:24.698Z,0
2016-10-10T01:43:38.962Z,0
2016-10-10T01:44:24.740Z,0
2016-10-10T01:45:24.114Z,0
2016-10-10T01:46:24.448Z,0
2016-10-10T01:47:24.142Z,0
2016-10-10T01:48:23.860Z,0
2016-10-10T01:49:24.498Z,0
2016-10-10T01:50:23.876Z,0
2016-10-10T01:51:24.535Z,0
2016-10-10T01:52:24.245Z,0
2016-10-10T01:53:24.243Z,0
2016-10-10T01:54:24.272Z,0
2016-10-10T01:55:24.588Z,0
2016-10-10T01:56:23.995Z,0
2016-10-10T01:57:24.316Z,0
2016-10-10T01:58:24.360Z,0
2016-10-10T01:59:24.669Z,0
2016-10-10T02:00:24.366Z,0
2016-10-10T02:01:24.386Z,0
2016-10-10T02:02:24.413Z,0
2016-10-10T02:03:24.414Z,0
2016-10-10T02:04:24.432Z,0
2016-10-10T02:05:24.765Z,0
2016-10-10T02:06:24.150Z,0
2016-10-10T02:07:24.485Z,0
2016-10-10T02:08:24.526Z,0
2016-10-10T02:09:24.516Z,0
2016-10-10T02:10:24.540Z,0
2016-10-10T02:11:24.243Z,0
2016-10-10T02:12:25.204Z,0
2016-10-10T02:13:24.268Z,0
2016-10-10T02:14:24.609Z,0
2016-10-10T02:15:24.944Z,0
2016-10-10T02:16:24.657Z,0
2016-10-10T02:17:25.309Z,0
2016-10-10T02:18:25.306Z,0
2016-10-10T02:19:25.012Z,0
2016-10-10T02:20:24.716Z,0
2016-10-10T02:21:25.120Z,0
2016-10-10T02:22:24.753Z,0
2016-10-10T02:23:24.764Z,0
2016-10-10T02:24:25.412Z,0
2016-10-10T02:25:24.481Z,0
2016-10-10T02:26:24.505Z,0
2016-10-10T02:27:25.458Z,0
2016-10-10T02:28:25.162Z,0
2016-10-10T02:29:24.546Z,0
2016-10-10T02:30:25.518Z,0
2016-10-10T02:31:24.578Z,0
2016-10-10T02:32:25.233Z,0
2016-10-10T02:33:24.941Z,0
2016-10-10T02:34:25.271Z,0
2016-10-10T02:35:25.279Z,0
2016-10-10T02:36:25.298Z,0
2016-10-10T02:37:25.348Z,0
2016-10-10T02:38:25.017Z,0
2016-10-10T02:39:25.035Z,0
2016-10-10T02:40:25.052Z,0
2016-10-10T02:41:25.382Z,0
2016-10-10T02:42:25.107Z,0
2016-10-10T02:43:25.421Z,0
2016-10-10T02:44:25.475Z,0
2016-10-10T02:45:24.847Z,0
2016-10-10T02:46:25.806Z,0
2016-10-10T02:47:24.867Z,0
2016-10-10T02:48:25.193Z,0
2016-10-10T02:49:24.889Z,0
2016-10-10T02:50:25.549Z,0
2016-10-10T02:51:25.559Z,0
2016-10-10T02:52:25.579Z,0
2016-10-10T02:53:24.963Z,0
2016-10-10T02:54:25.300Z,0
2016-10-10T02:55:24.993Z,0
2016-10-10T02:56:25.643Z,0
2016-10-10T02:57:25.658Z,0
2016-10-10T02:58:25.369Z,0
2016-10-10T02:59:25.065Z,0
2016-10-10T03:00:25.395Z,0
2016-10-10T03:01:25.412Z,0
2016-10-10T03:02:26.060Z,0
2016-10-10T03:03:25.453Z,0
2016-10-10T03:04:25.157Z,0
2016-10-10T03:05:25.478Z,0
2016-10-10T03:06:25.505Z,0
2016-10-10T03:07:25.848Z,0
2016-10-10T03:08:25.213Z,0
2016-10-10T03:09:25.862Z,0
2016-10-10T03:10:40.475Z,0
2016-10-10T03:11:25.901Z,0
2016-10-10T03:12:25.609Z,0
2016-10-10T03:13:25.933Z,0
2016-10-10T03:14:25.643Z,0
2016-10-10T03:15:25.337Z,0
2016-10-10T03:16:25.992Z,0
2016-10-10T03:17:25.367Z,0
2016-10-10T03:18:26.017Z,0
2016-10-10T03:19:25.395Z,0
2016-10-10T03:20:26.046Z,0
2016-10-10T03:21:25.449Z,0
2016-10-10T03:22:26.400Z,0
2016-10-10T03:23:25.786Z,0
2016-10-10T03:24:26.434Z,0
2016-10-10T03:25:25.496Z,0
2016-10-10T03:26:26.468Z,0
2016-10-10T03:27:25.846Z,0
2016-10-10T03:28:25.558Z,0
2016-10-10T03:29:25.883Z,0
2016-10-10T03:30:26.216Z,0
2016-10-10T03:31:26.557Z,0
2016-10-10T03:32:25.938Z,0
2016-10-10T03:33:25.943Z,0
2016-10-10T03:34:26.598Z,0
2016-10-10T03:35:26.295Z,0
2016-10-10T03:36:25.688Z,0
2016-10-10T03:37:26.022Z,0
2016-10-10T03:38:26.356Z,0
2016-10-10T03:39:26.051Z,0
2016-10-10T03:40:26.080Z,0
2016-10-10T03:41:26.415Z,0
2016-10-10T03:42:25.781Z,0
2016-10-10T03:43:25.803Z,0
2016-10-10T03:44:26.447Z,0
2016-10-10T03:45:26.467Z,0
2016-10-10T03:46:26.168Z,0
2016-10-10T03:47:26.186Z,0
2016-10-10T03:48:26.528Z,0
2016-10-10T03:49:26.531Z,0
2016-10-10T03:50:26.858Z,0
2016-10-10T03:51:26.597Z,0
2016-10-10T03:52:26.896Z,0
2016-10-10T03:53:26.912Z,0
2016-10-10T03:54:26.296Z,0
2016-10-10T03:55:26.948Z,0
2016-10-10T03:56:26.356Z,0
2016-10-10T03:57:26.355Z,0
2016-10-10T03:58:26.684Z,0
2016-10-10T03:59:26.713Z,0
2016-10-10T04:00:27.032Z,0
2016-10-10T04:01:26.115Z,0
2016-10-10T04:02:26.754Z,0
2016-10-10T04:03:26.131Z,0
2016-10-10T04:04:26.780Z,0
2016-10-10T04:05:26.479Z,0
2016-10-10T04:06:26.495Z,0
2016-10-10T04:07:26.198Z,0
2016-10-10T04:08:26.852Z,0
2016-10-10T04:09:26.862Z,0
2016-10-10T04:10:26.559Z,0
2016-10-10T04:11:26.578Z,0
2016-10-10T04:12:26.915Z,0
2016-10-10T04:13:26.610Z,0
2016-10-10T04:14:26.956Z,0
2016-10-10T04:15:26.644Z,0
2016-10-10T04:16:26.657Z,0
2016-10-10T04:17:27.307Z,0
2016-10-10T04:18:26.377Z,0
2016-10-10T04:19:26.719Z,0
2016-10-10T04:20:27.365Z,0
2016-10-10T04:21:26.431Z,0
2016-10-10T04:22:26.440Z,0
2016-10-10T04:23:27.096Z,0
2016-10-10T04:24:26.791Z,0
2016-10-10T04:25:26.499Z,0
2016-10-10T04:26:26.824Z,0
2016-10-10T04:27:26.849Z,0
2016-10-10T04:28:27.183Z,0
2016-10-10T04:29:26.878Z,0
2016-10-10T04:30:26.597Z,0
2016-10-10T04:31:26.908Z,0
2016-10-10T04:32:26.607Z,0
2016-10-10T04:33:26.943Z,0
2016-10-10T04:34:27.589Z,0
2016-10-10T04:35:27.300Z,0
2016-10-10T04:36:26.677Z,0
2016-10-10T04:37:27.009Z,0
2016-10-10T04:38:27.031Z,0
2016-10-10T04:39:27.683Z,0
2016-10-10T04:40:27.374Z,0
2016-10-10T04:41:27.391Z,0
2016-10-10T04:42:27.407Z,0
2016-10-10T04:43:26.792Z,0
2016-10-10T04:44:27.125Z,0
2016-10-10T04:45:27.142Z,0
2016-10-10T04:46:27.476Z,0
2016-10-10T04:47:27.821Z,0
2016-10-10T04:48:27.508Z,0
2016-10-10T04:49:27.543Z,0
2016-10-10T04:50:26.922Z,0
2016-10-10T04:51:27.556Z,0
2016-10-10T04:52:27.257Z,0
2016-10-10T04:53:27.595Z,0
2016-10-10T04:54:27.297Z,0
2016-10-10T04:55:27.623Z,0
2016-10-10T04:56:27.971Z,0
2016-10-10T04:57:27.365Z,0
2016-10-10T04:58:27.683Z,0
2016-10-10T04:59:27.065Z,0
2016-10-10T05:00:27.713Z,0
2016-10-10T05:01:27.416Z,0
2016-10-10T05:02:27.778Z,0
2016-10-10T05:03:27.129Z,0
2016-10-10T05:04:27.460Z,0
2016-10-10T05:05:27.165Z,0
2016-10-10T05:06:27.185Z,0
2016-10-10T05:07:27.512Z,0
2016-10-10T05:08:27.217Z,0
2016-10-10T05:09:27.874Z,0
2016-10-10T05:10:27.565Z,0
2016-10-10T05:11:27.892Z,0
2016-10-10T05:12:27.280Z,0
2016-10-10T05:13:27.940Z,0
2016-10-10T05:14:27.947Z,0
2016-10-10T05:15:27.643Z,0
2016-10-10T05:16:27.978Z,0
2016-10-10T05:17:27.364Z,0
2016-10-10T05:18:28.021Z,0
2016-10-10T05:19:28.041Z,0
2016-10-10T05:20:27.735Z,0
2016-10-10T05:21:28.059Z,0
2016-10-10T05:22:28.081Z,4
2016-10-10T05:23:28.427Z,4
2016-10-10T05:24:27.801Z,4
2016-10-10T05:25:27.829Z,0
2016-10-10T05:26:28.145Z,0
2016-10-10T05:27:27.544Z,0
2016-10-10T05:28:28.182Z,0
2016-10-10T05:29:28.197Z,0
2016-10-10T05:30:28.236Z,4
2016-10-10T05:31:28.245Z,4
2016-10-10T05:32:27.949Z,4
2016-10-10T05:33:27.945Z,0
2016-10-10T05:34:28.311Z,4
2016-10-10T05:35:28.616Z,0
2016-10-10T05:36:28.639Z,4
2016-10-10T05:37:28.015Z,4
2016-10-10T05:38:28.048Z,8
2016-10-10T05:39:28.052Z,8
2016-10-10T05:40:28.385Z,8
2016-10-10T05:41:28.410Z,8
2016-10-10T05:42:27.789Z,8
2016-10-10T05:43:28.434Z,8
2016-10-10T05:44:27.828Z,8
2016-10-10T05:45:28.470Z,12
2016-10-10T05:46:28.178Z,8
2016-10-10T05:47:42.760Z,12
2016-10-10T05:48:28.204Z,12
2016-10-10T05:49:28.548Z,12
2016-10-10T05:50:28.241Z,12
2016-10-10T05:51:28.257Z,12
2016-10-10T05:52:28.282Z,16
2016-10-10T05:53:28.296Z,16
2016-10-10T05:54:28.621Z,20
2016-10-10T05:55:28.642Z,20
2016-10-10T05:56:28.657Z,24
2016-10-10T05:57:28.364Z,24
2016-10-10T05:58:28.057Z,24
2016-10-10T05:59:28.389Z,28
2016-10-10T06:00:28.405Z,28
2016-10-10T06:01:28.744Z,32
2016-10-10T06:02:28.763Z,36
2016-10-10T06:03:28.457Z,40
2016-10-10T06:04:28.484Z,44
2016-10-10T06:05:28.810Z,48
2016-10-10T06:06:28.824Z,52
2016-10-10T06:07:28.846Z,56
2016-10-10T06:08:28.554Z,60
2016-10-10T06:09:28.573Z,60
2016-10-10T06:10:28.901Z,64
2016-10-10T06:11:28.926Z,60
2016-10-10T06:12:28.303Z,68
2016-10-10T06:13:28.325Z,72
2016-10-10T06:14:28.648Z,72
2016-10-10T06:15:28.348Z,80
2016-10-10T06:16:28.364Z,84
2016-10-10T06:17:29.329Z,88
2016-10-10T06:18:28.715Z,92
2016-10-10T06:19:28.735Z,88
2016-10-10T06:20:28.753Z,92
2016-10-10T06:21:28.765Z,88
2016-10-10T06:22:28.805Z,92
2016-10-10T06:23:29.572Z,96
2016-10-10T06:24:29.451Z,104
2016-10-10T06:25:29.467Z,116
2016-10-10T06:26:28.861Z,128
2016-10-10T06:27:29.189Z,140
2016-10-10T06:28:29.218Z,156
2016-10-10T06:29:29.555Z,188
2016-10-10T06:30:28.624Z,216
2016-10-10T06:31:43.828Z,232
2016-10-10T06:32:29.589Z,244
2016-10-10T06:33:29.294Z,268
2016-10-10T06:34:28.995Z,288
2016-10-10T06:35:28.695Z,304
2016-10-10T06:36:28.711Z,316
2016-10-10T06:37:29.044Z,324
2016-10-10T06:38:29.386Z,324
2016-10-10T06:39:28.765Z,328
2016-10-10T06:40:29.418Z,316
2016-10-10T06:41:29.122Z,288
2016-10-10T06:42:29.444Z,272
2016-10-10T06:43:29.152Z,260
2016-10-10T06:44:29.165Z,252
2016-10-10T06:45:29.204Z,248
2016-10-10T06:46:29.202Z,256
2016-10-10T06:47:29.219Z,264
2016-10-10T06:48:29.237Z,284
2016-10-10T06:49:28.941Z,284
2016-10-10T06:50:29.270Z,288
2016-10-10T06:51:29.290Z,300
2016-10-10T06:52:29.953Z,316
2016-10-10T06:53:29.334Z,336
2016-10-10T06:54:29.656Z,352
2016-10-10T06:55:29.699Z,360
2016-10-10T06:56:29.083Z,380
2016-10-10T06:57:29.713Z,404
2016-10-10T06:58:30.043Z,416
2016-10-10T06:59:29.430Z,428
2016-10-10T07:00:29.448Z,464
2016-10-10T07:01:29.785Z,472
2016-10-10T07:02:29.169Z,484
2016-10-10T07:03:29.512Z,516
2016-10-10T07:04:29.529Z,536
2016-10-10T07:05:29.856Z,548
2016-10-10T07:06:29.870Z,460
2016-10-10T07:07:29.890Z,504
2016-10-10T07:08:30.223Z,620
2016-10-10T07:09:29.918Z,620
2016-10-10T07:10:29.315Z,896
2016-10-10T07:11:29.966Z,1280
2016-10-10T07:12:30.292Z,2424
2016-10-10T07:13:29.680Z,1092
2016-10-10T07:14:29.697Z,996
2016-10-10T07:15:29.739Z,988
2016-10-10T07:16:30.363Z,780
2016-10-10T07:17:29.436Z,948
2016-10-10T07:18:30.084Z,804
2016-10-10T07:19:30.416Z,580
2016-10-10T07:20:30.434Z,400
2016-10-10T07:21:30.139Z,404
2016-10-10T07:22:30.155Z,752
2016-10-10T07:23:30.172Z,372
2016-10-10T07:24:30.188Z,204
2016-10-10T07:25:30.213Z,140
2016-10-10T07:26:29.925Z,128
2016-10-10T07:27:29.931Z,124
2016-10-10T07:28:30.262Z,116
2016-10-10T07:29:30.283Z,96
2016-10-10T07:30:29.991Z,96
2016-10-10T07:31:30.636Z,116
2016-10-10T07:32:30.336Z,116
2016-10-10T07:33:29.725Z,108
2016-10-10T07:34:29.743Z,104
2016-10-10T07:35:30.076Z,112
2016-10-10T07:36:30.110Z,120
2016-10-10T07:37:30.115Z,116
2016-10-10T07:38:30.440Z,116
2016-10-10T07:39:30.465Z,116
2016-10-10T07:40:29.847Z,116
2016-10-10T07:41:30.501Z,104
2016-10-10T07:42:30.208Z,92
2016-10-10T07:43:29.904Z,80
2016-10-10T07:44:29.925Z,84
2016-10-10T07:45:30.258Z,100
2016-10-10T07:46:30.584Z,124
2016-10-10T07:47:29.981Z,136
2016-10-10T07:48:30.313Z,140
2016-10-10T07:49:30.641Z,132
2016-10-10T07:50:30.664Z,128
2016-10-10T07:51:31.019Z,132
2016-10-10T07:52:30.071Z,120
2016-10-10T07:53:31.028Z,108
2016-10-10T07:54:30.473Z,100
2016-10-10T07:55:30.745Z,100
2016-10-10T07:56:30.778Z,104
2016-10-10T07:57:30.783Z,112
2016-10-10T07:58:31.143Z,116
2016-10-10T07:59:30.504Z,112
2016-10-10T08:00:30.842Z,108
2016-10-10T08:01:30.859Z,108
2016-10-10T08:02:30.581Z,108
2016-10-10T08:03:30.578Z,120
2016-10-10T08:04:30.287Z,124
2016-10-10T08:05:30.615Z,132
2016-10-10T08:06:30.632Z,132
2016-10-10T08:07:30.971Z,140
2016-10-10T08:08:30.353Z,152
2016-10-10T08:09:31.006Z,160
2016-10-10T08:10:30.705Z,160
2016-10-10T08:11:30.723Z,172
2016-10-10T08:12:30.425Z,192
2016-10-10T08:13:30.772Z,208
2016-10-10T08:14:30.779Z,204
2016-10-10T08:15:30.797Z,188
2016-10-10T08:16:30.508Z,176
2016-10-10T08:17:30.829Z,184
2016-10-10T08:18:31.500Z,196
2016-10-10T08:19:30.694Z,204
2016-10-10T08:20:31.520Z,216
2016-10-10T08:21:31.217Z,232
2016-10-10T08:22:31.548Z,252
2016-10-10T08:23:30.941Z,260
2016-10-10T08:24:31.370Z,236
2016-10-10T08:25:30.666Z,236
2016-10-10T08:26:31.310Z,248
2016-10-10T08:27:31.323Z,252
2016-10-10T08:28:31.030Z,256
2016-10-10T08:29:31.391Z,276
2016-10-10T08:30:31.702Z,328
2016-10-10T08:31:31.098Z,528
2016-10-10T08:32:31.102Z,708
2016-10-10T08:33:30.817Z,544
2016-10-10T08:34:31.140Z,528
2016-10-10T08:35:31.474Z,1252
2016-10-10T08:36:31.192Z,832
2016-10-10T08:37:31.559Z,636
2016-10-10T08:38:31.221Z,576
2016-10-10T08:39:31.544Z,492
2016-10-10T08:40:31.577Z,388
2016-10-10T08:41:30.951Z,344
2016-10-10T08:42:31.073Z,336
2016-10-10T08:43:31.619Z,308
2016-10-10T08:44:31.322Z,348
2016-10-10T08:45:31.030Z,420
2016-10-10T08:46:31.376Z,528
2016-10-10T08:47:31.384Z,568
2016-10-10T08:48:31.415Z,504
2016-10-10T08:49:32.043Z,564
2016-10-10T08:50:31.747Z,532
2016-10-10T08:51:31.470Z,480
2016-10-10T08:52:32.121Z,464
2016-10-10T08:53:31.501Z,496
2016-10-10T08:54:31.828Z,496
2016-10-10T08:55:31.539Z,496
2016-10-10T08:56:31.872Z,548
2016-10-10T08:57:31.565Z,624
2016-10-10T08:58:31.898Z,532
2016-10-10T08:59:31.930Z,488
2016-10-10T09:00:31.643Z,460
2016-10-10T09:01:31.322Z,452
2016-10-10T09:02:31.976Z,468
2016-10-10T09:03:31.695Z,500
2016-10-10T09:04:31.696Z,556
2016-10-10T09:05:31.712Z,648
2016-10-10T09:06:32.074Z,576
2016-10-10T09:07:31.768Z,584
2016-10-10T09:08:31.783Z,548
2016-10-10T09:09:31.934Z,592
2016-10-10T09:10:31.528Z,472
2016-10-10T09:11:31.513Z,424
2016-10-10T09:12:31.850Z,372
2016-10-10T09:13:32.499Z,352
2016-10-10T09:14:31.888Z,344
2016-10-10T09:15:31.917Z,336
2016-10-10T09:16:31.939Z,324
2016-10-10T09:17:31.947Z,320
2016-10-10T09:18:32.317Z,316
2016-10-10T09:19:31.992Z,316
2016-10-10T09:20:32.010Z,320
2016-10-10T09:21:31.713Z,320
2016-10-10T09:22:32.051Z,324
2016-10-10T09:23:32.221Z,328
2016-10-10T09:24:32.081Z,328
2016-10-10T09:25:32.101Z,336
2016-10-10T09:26:32.435Z,336
2016-10-10T09:27:32.140Z,344
2016-10-10T09:28:32.474Z,352
2016-10-10T09:29:32.492Z,364
2016-10-10T09:30:31.881Z,372
2016-10-10T09:31:32.540Z,380
2016-10-10T09:32:32.885Z,388
2016-10-10T09:33:32.584Z,396
2016-10-10T09:34:31.964Z,392
2016-10-10T09:35:32.937Z,400
2016-10-10T09:36:32.640Z,404
2016-10-10T09:37:32.340Z,404
2016-10-10T09:38:32.046Z,412
2016-10-10T09:39:32.697Z,420
2016-10-10T09:40:32.401Z,400
2016-10-10T09:41:32.413Z,368
2016-10-10T09:42:32.755Z,320
2016-10-10T09:43:32.455Z,292
2016-10-10T09:44:33.112Z,268
2016-10-10T09:45:32.830Z,260
2016-10-10T09:46:32.520Z,256
2016-10-10T09:47:32.550Z,264
2016-10-10T09:48:32.572Z,276
2016-10-10T09:49:32.301Z,280
2016-10-10T09:50:32.930Z,284
2016-10-10T09:51:32.933Z,272
2016-10-10T09:52:32.956Z,252
2016-10-10T09:53:32.663Z,236
2016-10-10T09:54:32.364Z,216
2016-10-10T09:55:33.014Z,208
2016-10-10T09:56:33.350Z,196
2016-10-10T09:57:33.061Z,196
2016-10-10T09:58:32.454Z,200
2016-10-10T09:59:32.782Z,212
2016-10-10T10:00:33.136Z,212
2016-10-10T10:01:32.838Z,228
2016-10-10T10:02:32.841Z,216
2016-10-10T10:03:33.503Z,216
2016-10-10T10:04:32.888Z,240
2016-10-10T10:05:32.898Z,268
2016-10-10T10:06:32.924Z,292
2016-10-10T10:07:33.257Z,320
2016-10-10T10:08:32.976Z,324
2016-10-10T10:09:33.297Z,324
2016-10-10T10:10:33.007Z,332
2016-10-10T10:11:32.714Z,348
2016-10-10T10:12:32.731Z,348
2016-10-10T10:13:33.063Z,312
2016-10-10T10:14:33.091Z,280
2016-10-10T10:15:32.796Z,248
2016-10-10T10:16:33.131Z,240
2016-10-10T10:17:33.152Z,260
2016-10-10T10:18:33.182Z,268
2016-10-10T10:19:33.187Z,288
2016-10-10T10:20:33.210Z,320
2016-10-10T10:21:33.547Z,368
2016-10-10T10:22:33.814Z,420
2016-10-10T10:23:33.593Z,428
2016-10-10T10:24:33.928Z,684
2016-10-10T10:25:33.312Z,340
2016-10-10T10:26:33.023Z,300
2016-10-10T10:27:33.040Z,284
2016-10-10T10:28:33.381Z,288
2016-10-10T10:29:33.415Z,312
2016-10-10T10:30:33.732Z,456
2016-10-10T10:31:33.434Z,976
2016-10-10T10:32:33.146Z,1048
2016-10-10T10:33:33.165Z,968
2016-10-10T10:34:33.497Z,216
2016-10-10T10:35:33.838Z,152
2016-10-10T10:36:33.547Z,140
2016-10-10T10:37:33.249Z,144
2016-10-10T10:38:33.271Z,160
2016-10-10T10:39:33.923Z,180
2016-10-10T10:40:33.636Z,200
2016-10-10T10:41:33.967Z,216
2016-10-10T10:42:34.013Z,220
2016-10-10T10:43:34.002Z,212
2016-10-10T10:44:33.708Z,212
2016-10-10T10:45:34.067Z,200
2016-10-10T10:46:33.441Z,176
2016-10-10T10:47:33.469Z,168
2016-10-10T10:48:33.796Z,164
2016-10-10T10:49:34.456Z,184
2016-10-10T10:50:34.175Z,184
2016-10-10T10:51:33.543Z,184
2016-10-10T10:52:33.879Z,176
2016-10-10T10:53:34.529Z,180
2016-10-10T10:54:33.921Z,200
2016-10-10T10:55:33.632Z,208
2016-10-10T10:56:34.277Z,200
2016-10-10T10:57:33.990Z,192
2016-10-10T10:58:34.324Z,184
2016-10-10T10:59:34.043Z,164
2016-10-10T11:00:34.376Z,156
2016-10-10T11:01:34.381Z,152
2016-10-10T11:02:34.411Z,156
2016-10-10T11:03:34.108Z,164
2016-10-10T11:04:34.150Z,168
2016-10-10T11:05:34.484Z,180
2016-10-10T11:06:34.804Z,184
2016-10-10T11:07:34.189Z,196
2016-10-10T11:08:34.531Z,184
2016-10-10T11:09:34.230Z,192
2016-10-10T11:10:34.569Z,200
2016-10-10T11:11:33.955Z,208
2016-10-10T11:12:33.990Z,224
2016-10-10T11:13:34.631Z,224
2016-10-10T11:14:34.022Z,232
2016-10-10T11:15:34.048Z,252
2016-10-10T11:16:34.068Z,276
2016-10-10T11:17:35.031Z,304
2016-10-10T11:18:34.436Z,316
2016-10-10T11:19:34.444Z,332
2016-10-10T11:20:34.803Z,336
2016-10-10T11:21:34.485Z,324
2016-10-10T11:22:34.825Z,304
2016-10-10T11:23:34.843Z,288
2016-10-10T11:24:34.861Z,260
2016-10-10T11:25:34.578Z,244
2016-10-10T11:26:34.915Z,232
2016-10-10T11:27:34.928Z,224
2016-10-10T11:28:34.313Z,208
2016-10-10T11:29:34.987Z,200
2016-10-10T11:30:34.671Z,200
2016-10-10T11:31:34.690Z,196
2016-10-10T11:32:34.711Z,184
2016-10-10T11:33:34.426Z,192
2016-10-10T11:34:34.757Z,188
2016-10-10T11:35:35.410Z,192
2016-10-10T11:36:35.431Z,200
2016-10-10T11:37:35.129Z,188
2016-10-10T11:38:35.491Z,180
2016-10-10T11:39:35.178Z,188
2016-10-10T11:40:35.194Z,192
2016-10-10T11:41:35.221Z,196
2016-10-10T11:42:34.987Z,200
2016-10-10T11:43:34.950Z,200
2016-10-10T11:44:34.965Z,200
2016-10-10T11:45:34.992Z,208
2016-10-10T11:46:35.010Z,220
2016-10-10T11:47:35.044Z,216
2016-10-10T11:48:34.732Z,220
2016-10-10T11:49:35.388Z,212
2016-10-10T11:50:35.092Z,240
2016-10-10T11:51:35.121Z,268
2016-10-10T11:52:35.448Z,260
2016-10-10T11:53:35.155Z,328
2016-10-10T11:54:35.198Z,660
2016-10-10T11:55:35.198Z,380
2016-10-10T11:56:35.847Z,304
2016-10-10T11:57:35.242Z,336
2016-10-10T11:58:35.264Z,412
2016-10-10T11:59:35.605Z,452
2016-10-10T12:00:35.619Z,612
2016-10-10T12:01:35.955Z,792
2016-10-10T12:02:35.673Z,884
2016-10-10T12:03:35.686Z,888
2016-10-10T12:04:35.709Z,876
2016-10-10T12:05:35.114Z,916
2016-10-10T12:06:35.750Z,932
2016-10-10T12:07:35.769Z,904
2016-10-10T12:08:35.158Z,856
2016-10-10T12:09:35.220Z,424
2016-10-10T12:10:36.155Z,412
2016-10-10T12:11:35.853Z,484
2016-10-10T12:12:35.880Z,364
2016-10-10T12:13:35.586Z,324
2016-10-10T12:14:35.611Z,812
2016-10-10T12:15:35.639Z,396
2016-10-10T12:16:35.965Z,424
2016-10-10T12:17:35.989Z,448
2016-10-10T12:18:35.699Z,636
2016-10-10T12:19:36.040Z,396
2016-10-10T12:20:35.740Z,568
2016-10-10T12:21:35.453Z,436
2016-10-10T12:22:36.117Z,404
2016-10-10T12:23:35.809Z,572
2016-10-10T12:24:36.461Z,728
2016-10-10T12:25:35.867Z,784
2016-10-10T12:26:35.882Z,392
2016-10-10T12:27:36.216Z,820
2016-10-10T12:28:36.236Z,804
2016-10-10T12:29:36.280Z,800
2016-10-10T12:30:35.962Z,804
2016-10-10T12:31:36.302Z,780
2016-10-10T12:32:36.327Z,712
2016-10-10T12:33:36.664Z,740
2016-10-10T12:34:36.369Z,788
2016-10-10T12:35:35.763Z,512
2016-10-10T12:36:35.785Z,568
2016-10-10T12:37:35.866Z,824
2016-10-10T12:38:35.839Z,836
2016-10-10T12:39:35.859Z,804
2016-10-10T12:40:36.195Z,768
2016-10-10T12:41:36.191Z,348
2016-10-10T12:42:36.563Z,356
2016-10-10T12:43:36.266Z,372
2016-10-10T12:44:36.623Z,524
2016-10-10T12:45:36.619Z,284
2016-10-10T12:46:36.647Z,248
2016-10-10T12:47:36.668Z,220
2016-10-10T12:48:36.694Z,212
2016-10-10T12:49:36.717Z,204
2016-10-10T12:50:37.054Z,188
2016-10-10T12:51:37.507Z,188
2016-10-10T12:52:36.788Z,192
2016-10-10T12:53:36.172Z,196
2016-10-10T12:54:36.834Z,196
2016-10-10T12:55:36.857Z,200
2016-10-10T12:56:36.578Z,204
2016-10-10T12:57:37.210Z,212
2016-10-10T12:58:36.310Z,220
2016-10-10T12:59:36.323Z,232
2016-10-10T13:00:36.965Z,476
2016-10-10T13:01:36.707Z,412
2016-10-10T13:02:36.695Z,568
2016-10-10T13:03:36.717Z,464
2016-10-10T13:04:36.752Z,596
2016-10-10T13:05:37.080Z,604
2016-10-10T13:06:36.792Z,620
2016-10-10T13:07:37.461Z,604
2016-10-10T13:08:38.820Z,276
2016-10-10T13:09:36.858Z,272
2016-10-10T13:10:36.891Z,280
2016-10-10T13:11:36.903Z,296
2016-10-10T13:12:37.243Z,320
2016-10-10T13:13:37.269Z,336
2016-10-10T13:14:37.293Z,336
2016-10-10T13:15:37.015Z,568
2016-10-10T13:16:37.351Z,356
2016-10-10T13:17:37.044Z,300
2016-10-10T13:18:37.071Z,280
2016-10-10T13:19:37.086Z,568
2016-10-10T13:20:37.433Z,568
2016-10-10T13:21:37.452Z,552
2016-10-10T13:22:37.467Z,484
2016-10-10T13:23:37.496Z,528
2016-10-10T13:24:37.203Z,540
2016-10-10T13:25:37.223Z,540
2016-10-10T13:26:37.244Z,540
2016-10-10T13:27:37.608Z,528
2016-10-10T13:28:37.311Z,308
2016-10-10T13:29:37.636Z,332
2016-10-10T13:30:37.672Z,236
2016-10-10T13:31:37.358Z,204
2016-10-10T13:32:37.389Z,504
2016-10-10T13:33:37.403Z,504
2016-10-10T13:34:37.427Z,448
2016-10-10T13:35:37.448Z,324
2016-10-10T13:36:37.158Z,228
2016-10-10T13:37:37.812Z,200
2016-10-10T13:38:38.155Z,248
2016-10-10T13:39:37.926Z,276
2016-10-10T13:40:38.077Z,256
2016-10-10T13:41:38.018Z,304
2016-10-10T13:42:37.633Z,264
2016-10-10T13:43:37.348Z,244
2016-10-10T13:44:37.974Z,224
2016-10-10T13:45:37.362Z,200
2016-10-10T13:46:38.048Z,196
2016-10-10T13:47:38.066Z,200
2016-10-10T13:48:37.750Z,200
2016-10-10T13:49:38.102Z,192
2016-10-10T13:50:38.427Z,180
2016-10-10T13:51:37.504Z,176
2016-10-10T13:52:37.530Z,176
2016-10-10T13:53:37.867Z,184
2016-10-10T13:54:38.206Z,184
2016-10-10T13:55:38.538Z,184
2016-10-10T13:56:37.926Z,180
2016-10-10T13:57:38.271Z,192
2016-10-10T13:58:37.659Z,208
2016-10-10T13:59:38.630Z,184
2016-10-10T14:00:38.347Z,188
2016-10-10T14:01:38.041Z,160
2016-10-10T14:02:38.693Z,152
2016-10-10T14:03:38.395Z,152
2016-10-10T14:04:38.422Z,152
2016-10-10T14:05:38.470Z,156
2016-10-10T14:06:37.835Z,156
2016-10-10T14:07:38.182Z,156
2016-10-10T14:08:38.191Z,148
2016-10-10T14:09:38.290Z,148
2016-10-10T14:10:38.558Z,144
2016-10-10T14:11:38.578Z,144
2016-10-10T14:12:38.600Z,144